Terminal Aerodrome Forecast
Issued by NWS San Angelo, TX

Home | Current Version | Previous Version | Text Only | Print | Product List | Glossary On
Versions: 1 2 3 4 5 6 7 8 9 10 11 12 13 14 15 16 17 18 19 20 21 22
000
FTUS44 KSJT 201300 AAA
TAFABI
TAF AMD
KABI 201351Z 2014/2112 VRB03KT P6SM VCSH OVC020
     FM201800 18015G20KT P6SM VCSH BKN020
     FM210000 19015KT P6SM VCTS BKN020CB
     FM210500 20012KT P6SM OVC009=

USA.gov is the U.S. government's official web portal to all federal, state and local government web resources and services.